createdAt,value
2022-08-14T00:02:03.661Z,68.91
2022-08-14T00:04:41.959Z,68.74
2022-08-14T00:07:14.114Z,68.77
2022-08-14T00:10:01.895Z,68.84
2022-08-14T00:12:37.770Z,69.09
2022-08-14T00:15:15.354Z,69.01
2022-08-14T00:17:47.269Z,69.07
2022-08-14T00:20:24.165Z,69.05
2022-08-14T00:23:14.677Z,69.05
2022-08-14T00:25:53.752Z,69.29
2022-08-14T00:28:32.497Z,69.14
2022-08-14T00:31:02.604Z,69.17
2022-08-14T00:33:52.496Z,69.28
2022-08-14T00:36:37.695Z,69.40
2022-08-14T00:39:06.469Z,69.34
2022-08-14T00:41:36.877Z,69.59
2022-08-14T00:44:07.446Z,69.59
2022-08-14T00:46:36.991Z,69.57
2022-08-14T00:49:05.740Z,69.57
2022-08-14T00:51:34.826Z,69.81
2022-08-14T00:54:16.854Z,69.88
2022-08-14T00:56:54.802Z,69.81
2022-08-14T00:59:27.523Z,69.94
2022-08-14T01:01:58.487Z,70.02
2022-08-14T01:04:50.963Z,70.15
2022-08-14T01:07:20.624Z,70.43
2022-08-14T01:09:52.766Z,70.30
2022-08-14T01:12:26.913Z,70.28
2022-08-14T01:14:58.758Z,70.32
2022-08-14T01:17:49.589Z,70.45
2022-08-14T01:20:53.336Z,70.53
2022-08-14T01:23:21.699Z,70.41
2022-08-14T01:25:51.027Z,70.37
2022-08-14T01:28:46.314Z,70.81
2022-08-14T01:31:12.226Z,70.78
2022-08-14T01:33:59.636Z,70.62
2022-08-14T01:36:36.597Z,70.81
2022-08-14T01:39:13.318Z,70.77
2022-08-14T01:41:43.229Z,70.88
2022-08-14T01:44:33.234Z,71.02
2022-08-14T01:47:01.997Z,70.80
2022-08-14T01:49:35.261Z,70.94
2022-08-14T01:52:09.051Z,70.74
2022-08-14T01:54:58.165Z,71.12
2022-08-14T01:57:26.407Z,70.84
2022-08-14T02:00:18.758Z,71.14
2022-08-14T02:02:46.879Z,71.28
2022-08-14T02:05:21.337Z,71.05
2022-08-14T02:07:55.879Z,71.19
2022-08-14T02:10:46.288Z,71.11
2022-08-14T02:13:16.675Z,71.14
2022-08-14T02:15:45.734Z,71.06
2022-08-14T02:18:16.372Z,71.26
2022-08-14T02:20:48.302Z,71.25
2022-08-14T02:23:29.129Z,71.31
2022-08-14T02:26:24.017Z,71.18
2022-08-14T02:28:57.941Z,71.34
2022-08-14T02:31:42.516Z,71.53
2022-08-14T02:34:26.345Z,71.40
2022-08-14T02:37:03.924Z,71.34
2022-08-14T02:39:34.658Z,71.55
2022-08-14T02:42:04.436Z,71.49
2022-08-14T02:44:39.550Z,71.68
2022-08-14T02:47:14.741Z,71.57
2022-08-14T02:49:42.915Z,71.53
2022-08-14T02:52:56.049Z,71.74
2022-08-14T02:55:00.804Z,71.61
2022-08-14T02:57:39.958Z,71.65
2022-08-14T03:00:10.117Z,71.77
2022-08-14T03:02:56.444Z,71.62
2022-08-14T03:05:29.331Z,71.68
2022-08-14T03:08:04.751Z,71.72
2022-08-14T03:10:36.990Z,71.65
2022-08-14T03:13:13.805Z,71.74
2022-08-14T03:15:51.026Z,71.84
2022-08-14T03:18:31.960Z,71.80
2022-08-14T03:21:01.437Z,71.75
2022-08-14T03:23:34.071Z,71.83
2022-08-14T03:26:07.213Z,71.85
2022-08-14T03:28:36.612Z,71.98
2022-08-14T03:31:08.346Z,72.09
2022-08-14T03:33:41.295Z,72.02
2022-08-14T03:37:39.038Z,71.95
2022-08-14T03:39:11.592Z,71.89
2022-08-14T03:41:43.869Z,72.22
2022-08-14T03:45:19.078Z,72.08
2022-08-14T03:46:59.689Z,72.04
2022-08-14T03:49:30.801Z,72.26
2022-08-14T03:52:01.329Z,72.28
2022-08-14T03:54:30.396Z,71.96
2022-08-14T03:57:03.008Z,71.96
2022-08-14T03:59:31.806Z,72.28
2022-08-14T04:02:01.700Z,72.13
2022-08-14T04:04:30.769Z,72.19
2022-08-14T04:06:59.871Z,72.17
2022-08-14T04:09:27.798Z,72.19
2022-08-14T04:11:56.288Z,72.09
2022-08-14T04:14:25.896Z,72.01
2022-08-14T04:16:53.539Z,72.12
2022-08-14T04:19:23.982Z,72.07
2022-08-14T04:22:02.415Z,71.98
2022-08-14T04:24:38.449Z,72.32
2022-08-14T04:27:09.575Z,71.95
2022-08-14T04:29:42.810Z,72.10
2022-08-14T04:32:58.211Z,72.04
2022-08-14T04:35:00.951Z,71.93
2022-08-14T04:37:47.219Z,71.71
2022-08-14T04:40:40.762Z,71.57
2022-08-14T04:43:32.452Z,71.72
2022-08-14T04:46:08.506Z,71.87
2022-08-14T04:48:43.277Z,71.75
2022-08-14T04:51:12.395Z,71.79
2022-08-14T04:53:43.917Z,71.88
2022-08-14T04:56:31.227Z,71.71
2022-08-14T04:59:02.302Z,71.78
2022-08-14T05:01:39.995Z,71.69
2022-08-14T05:04:08.764Z,71.57
2022-08-14T05:06:44.094Z,71.67
2022-08-14T05:09:14.324Z,71.60
2022-08-14T05:11:42.549Z,71.50
2022-08-14T05:14:17.326Z,71.39
2022-08-14T05:17:01.828Z,71.61
2022-08-14T05:19:32.555Z,71.68
2022-08-14T05:22:17.265Z,71.60
2022-08-14T05:24:50.368Z,71.52
2022-08-14T05:27:23.153Z,71.45
2022-08-14T05:29:53.278Z,71.72
2022-08-14T05:32:21.567Z,71.55
2022-08-14T05:34:50.502Z,71.50
2022-08-14T05:37:19.079Z,71.55
2022-08-14T05:39:46.980Z,71.38
2022-08-14T05:42:22.014Z,71.34
2022-08-14T05:44:57.499Z,71.11
2022-08-14T05:47:28.549Z,71.08
2022-08-14T05:50:02.271Z,70.92
2022-08-14T05:52:39.335Z,70.78
2022-08-14T05:55:08.299Z,70.81
2022-08-14T05:57:49.035Z,70.55
2022-08-14T06:00:25.026Z,70.67
2022-08-14T06:03:00.009Z,70.38
2022-08-14T06:05:28.823Z,70.59
2022-08-14T06:07:58.043Z,70.56
2022-08-14T06:10:28.334Z,70.41
2022-08-14T06:12:58.053Z,70.19
2022-08-14T06:15:30.025Z,69.92
2022-08-14T06:18:00.103Z,69.99
2022-08-14T06:20:30.029Z,70.07
2022-08-14T06:22:59.089Z,70.45
2022-08-14T06:25:26.914Z,70.16
2022-08-14T06:27:55.937Z,69.92
2022-08-14T06:30:30.376Z,69.61
2022-08-14T06:33:13.714Z,69.37
2022-08-14T06:35:43.527Z,69.40
2022-08-14T06:38:17.385Z,69.20
2022-08-14T06:40:45.964Z,68.88
2022-08-14T06:43:15.195Z,68.72
2022-08-14T06:45:43.718Z,68.39
2022-08-14T06:48:18.961Z,68.88
2022-08-14T06:50:49.769Z,68.70
2022-08-14T06:53:19.903Z,68.39
2022-08-14T06:55:58.111Z,68.28
2022-08-14T06:58:30.928Z,68.25
2022-08-14T07:01:24.943Z,68.40
2022-08-14T07:04:23.908Z,67.92
2022-08-14T07:06:55.530Z,67.53
2022-08-14T07:09:28.326Z,67.27
2022-08-14T07:12:56.095Z,67.16
2022-08-14T07:15:01.587Z,67.20
2022-08-14T07:17:29.271Z,66.72
2022-08-14T07:19:59.807Z,66.83
2022-08-14T07:22:32.880Z,66.87
2022-08-14T07:25:15.098Z,66.46
2022-08-14T07:27:42.827Z,66.36
2022-08-14T07:30:33.835Z,65.98
2022-08-14T07:32:58.978Z,65.73
2022-08-14T07:35:37.252Z,65.60
2022-08-14T07:38:16.610Z,65.66
2022-08-14T07:40:45.314Z,65.92
2022-08-14T07:43:14.848Z,64.75
2022-08-14T07:45:43.188Z,64.46
2022-08-14T07:48:14.956Z,64.62
2022-08-14T07:50:45.464Z,64.35
2022-08-14T07:53:14.262Z,64.26
2022-08-14T07:55:42.902Z,64.43
2022-08-14T07:58:21.289Z,64.36
2022-08-14T08:00:58.749Z,64.21
2022-08-14T08:03:28.245Z,64.24
2022-08-14T08:05:58.108Z,64.52
2022-08-14T08:08:27.722Z,64.45
2022-08-14T08:11:02.979Z,64.34
2022-08-14T08:13:31.610Z,64.38
2022-08-14T08:16:03.251Z,64.36
2022-08-14T08:18:31.345Z,64.32
2022-08-14T08:21:00.261Z,64.30
2022-08-14T08:23:32.615Z,64.39
2022-08-14T08:26:08.582Z,64.50
2022-08-14T08:28:36.198Z,64.55
2022-08-14T08:31:05.253Z,64.50
2022-08-14T08:33:37.161Z,64.61
2022-08-14T08:36:06.525Z,64.48
2022-08-14T08:39:15.556Z,64.19
2022-08-14T08:41:24.483Z,64.33
2022-08-14T08:43:54.014Z,64.67
2022-08-14T08:46:24.340Z,64.27
2022-08-14T08:51:33.257Z,64.07
2022-08-14T08:54:15.389Z,63.75
2022-08-14T08:56:49.031Z,64.13
2022-08-14T08:59:17.839Z,63.92
2022-08-14T09:01:52.344Z,63.76
2022-08-14T09:04:25.325Z,63.82
2022-08-14T09:07:00.097Z,63.71
2022-08-14T09:09:54.088Z,63.66
2022-08-14T09:12:32.233Z,63.61
2022-08-14T09:15:01.872Z,63.67
2022-08-14T09:17:29.537Z,63.63
2022-08-14T09:19:57.085Z,63.51
2022-08-14T09:22:36.069Z,63.53
2022-08-14T09:25:16.867Z,63.65
2022-08-14T09:27:44.571Z,62.95
2022-08-14T09:30:33.197Z,62.74
2022-08-14T09:33:10.975Z,62.21
2022-08-14T09:35:56.580Z,62.47
2022-08-14T09:38:27.618Z,62.24
2022-08-14T09:41:14.035Z,61.82
2022-08-14T09:43:45.880Z,61.84
2022-08-14T09:46:17.102Z,61.53
2022-08-14T09:48:57.855Z,61.54
2022-08-14T09:51:26.088Z,61.63
2022-08-14T09:54:19.239Z,61.13
2022-08-14T09:56:56.896Z,60.65
2022-08-14T09:59:27.865Z,60.59
2022-08-14T10:01:57.403Z,60.66
2022-08-14T10:04:36.016Z,58.53
2022-08-14T10:07:06.009Z,54.73
2022-08-14T10:09:57.523Z,52.38
2022-08-14T10:12:44.879Z,53.66
2022-08-14T10:15:16.760Z,52.02
2022-08-14T10:17:44.329Z,50.04
2022-08-14T10:20:39.999Z,46.93
2022-08-14T10:23:23.033Z,43.84
2022-08-14T10:25:57.725Z,42.28
2022-08-14T10:28:39.065Z,40.55
2022-08-14T10:31:16.564Z,40.61
2022-08-14T10:34:00.416Z,40.47
2022-08-14T10:36:34.751Z,41.03
2022-08-14T10:39:09.516Z,41.00
2022-08-14T10:41:41.722Z,41.63
2022-08-14T10:44:21.666Z,41.71
2022-08-14T10:47:40.378Z,40.51
2022-08-14T10:49:53.221Z,40.60
2022-08-14T10:52:24.293Z,38.66
2022-08-14T10:54:56.402Z,37.11
2022-08-14T10:57:25.417Z,36.65
2022-08-14T10:59:56.174Z,36.75
2022-08-14T11:02:50.214Z,36.03
2022-08-14T11:05:24.946Z,36.87
2022-08-14T11:07:56.364Z,37.19
2022-08-14T11:10:40.856Z,37.76
2022-08-14T11:13:15.526Z,37.96
2022-08-14T11:15:43.201Z,38.29
2022-08-14T11:18:12.112Z,37.74
2022-08-14T11:20:50.901Z,37.71
2022-08-14T11:23:22.857Z,38.03
2022-08-14T11:25:53.462Z,37.93
2022-08-14T11:28:48.004Z,37.90
2022-08-14T11:31:11.144Z,37.98
2022-08-14T11:33:39.522Z,38.06
2022-08-14T11:36:17.829Z,38.52
2022-08-14T11:38:46.677Z,38.35
2022-08-14T11:41:17.059Z,38.60
2022-08-14T11:43:55.853Z,38.74
2022-08-14T11:46:30.371Z,38.67
2022-08-14T11:49:06.350Z,39.08
2022-08-14T11:51:36.150Z,39.26
2022-08-14T11:54:33.724Z,39.34
2022-08-14T11:57:04.491Z,39.63
2022-08-14T11:59:35.404Z,39.88
2022-08-14T12:02:38.975Z,40.05
2022-08-14T12:05:00.405Z,40.38
2022-08-14T12:07:32.078Z,40.20
2022-08-14T12:09:59.994Z,40.64
2022-08-14T12:12:34.930Z,41.03
2022-08-14T12:15:05.419Z,41.23
2022-08-14T12:17:47.676Z,41.66
2022-08-14T12:20:30.261Z,41.58
2022-08-14T12:23:00.996Z,42.04
2022-08-14T12:25:29.002Z,42.20
2022-08-14T12:27:59.079Z,42.80
2022-08-14T12:30:27.450Z,43.05
2022-08-14T12:33:03.477Z,43.44
2022-08-14T12:35:39.667Z,43.65
2022-08-14T12:38:07.464Z,43.99
2022-08-14T12:40:35.273Z,44.03
2022-08-14T12:43:08.953Z,44.31
2022-08-14T12:45:49.484Z,44.96
2022-08-14T12:48:21.717Z,45.16
2022-08-14T12:50:59.363Z,45.74
2022-08-14T12:53:36.242Z,45.82
2022-08-14T12:56:21.884Z,46.04
2022-08-14T12:58:56.492Z,46.39
2022-08-14T13:01:28.554Z,46.65
2022-08-14T13:04:10.465Z,46.70
2022-08-14T13:06:44.733Z,47.33
2022-08-14T13:09:19.334Z,47.46
2022-08-14T13:11:49.480Z,47.47
2022-08-14T13:14:29.887Z,47.71
2022-08-14T13:16:58.503Z,48.06
2022-08-14T13:19:28.246Z,48.11
2022-08-14T13:22:05.785Z,48.44
2022-08-14T13:24:38.344Z,48.59
2022-08-14T13:27:10.008Z,48.63
2022-08-14T13:29:46.533Z,48.97
2022-08-14T13:32:15.194Z,49.05
2022-08-14T13:34:48.809Z,49.62
2022-08-14T13:37:17.277Z,49.76
2022-08-14T13:39:57.090Z,49.88
2022-08-14T13:42:30.261Z,50.01
2022-08-14T13:45:02.328Z,50.58
2022-08-14T13:47:30.850Z,50.62
2022-08-14T13:50:00.442Z,50.85
2022-08-14T13:52:51.987Z,50.98
2022-08-14T13:55:18.441Z,51.14
2022-08-14T13:57:59.472Z,51.32
2022-08-14T14:00:53.189Z,51.28
2022-08-14T14:03:24.038Z,51.62
2022-08-14T14:05:54.884Z,51.70
2022-08-14T14:08:43.315Z,51.58
2022-08-14T14:11:11.307Z,51.38
2022-08-14T14:13:44.747Z,51.73
2022-08-14T14:16:15.595Z,51.65
2022-08-14T14:18:56.175Z,51.64
2022-08-14T14:21:28.715Z,51.52
2022-08-14T14:23:56.977Z,52.01
2022-08-14T14:26:25.043Z,51.93
2022-08-14T14:28:55.342Z,51.85
2022-08-14T14:31:30.088Z,51.92
2022-08-14T14:34:00.435Z,51.91
2022-08-14T14:36:29.495Z,52.12
2022-08-14T14:38:58.212Z,52.06
2022-08-14T14:41:37.881Z,52.35
2022-08-14T14:44:16.505Z,51.91
2022-08-14T14:46:51.005Z,52.04
2022-08-14T14:49:21.833Z,52.25
2022-08-14T14:51:51.630Z,52.47
2022-08-14T14:54:31.871Z,52.60
2022-08-14T14:57:02.542Z,52.61
2022-08-14T14:59:35.952Z,52.66
2022-08-14T15:02:07.855Z,52.96
2022-08-14T15:04:37.893Z,52.80
2022-08-14T15:07:06.496Z,52.79
2022-08-14T15:09:34.582Z,52.82
2022-08-14T15:12:05.545Z,52.98
2022-08-14T15:14:55.896Z,53.38
2022-08-14T15:17:28.655Z,53.14
2022-08-14T15:20:07.361Z,52.64
2022-08-14T15:22:36.915Z,52.55
2022-08-14T15:25:05.261Z,52.54
2022-08-14T15:27:34.836Z,52.79
2022-08-14T15:30:02.412Z,52.86
2022-08-14T15:32:30.300Z,52.92
2022-08-14T15:35:00.829Z,52.91
2022-08-14T15:37:32.660Z,52.98
2022-08-14T15:40:02.344Z,52.96
2022-08-14T15:42:38.120Z,53.45
2022-08-14T15:45:10.046Z,53.37
2022-08-14T15:47:41.633Z,53.42
2022-08-14T15:50:12.743Z,53.55
2022-08-14T15:52:44.878Z,53.51
2022-08-14T15:55:14.509Z,53.87
2022-08-14T15:58:02.428Z,53.52
2022-08-14T16:00:53.559Z,53.73
2022-08-14T16:03:27.582Z,54.01
2022-08-14T16:06:10.965Z,54.26
2022-08-14T16:08:43.916Z,54.25
2022-08-14T16:11:11.901Z,54.54
2022-08-14T16:13:44.398Z,54.47
2022-08-14T16:16:47.545Z,54.73
2022-08-14T16:18:59.578Z,54.96
2022-08-14T16:21:31.571Z,55.05
2022-08-14T16:23:59.985Z,55.25
2022-08-14T16:26:30.095Z,55.42
2022-08-14T16:29:15.572Z,55.63
2022-08-14T16:31:44.857Z,55.66
2022-08-14T16:34:45.014Z,55.80
2022-08-14T16:37:03.167Z,55.91
2022-08-14T16:39:30.907Z,55.92
2022-08-14T16:42:00.582Z,55.97
2022-08-14T16:44:41.680Z,55.86
2022-08-14T16:47:17.466Z,56.19
2022-08-14T16:50:04.311Z,56.31
2022-08-14T16:52:44.124Z,56.41
2022-08-14T16:55:13.788Z,56.51
2022-08-14T16:57:52.002Z,56.60
2022-08-14T17:00:43.493Z,56.78
2022-08-14T17:03:12.386Z,56.68
2022-08-14T17:05:42.946Z,56.89
2022-08-14T17:08:33.052Z,56.83
2022-08-14T17:11:01.716Z,57.08
2022-08-14T17:14:00.027Z,57.06
2022-08-14T17:16:26.006Z,57.02
2022-08-14T17:19:00.782Z,57.31
2022-08-14T17:21:32.668Z,57.36
2022-08-14T17:24:56.043Z,57.28
2022-08-14T17:26:55.201Z,57.35
2022-08-14T17:29:29.447Z,57.58
2022-08-14T17:32:29.257Z,57.56
2022-08-14T17:35:10.076Z,57.56
2022-08-14T17:37:44.890Z,57.87
2022-08-14T17:40:15.934Z,58.03
2022-08-14T17:42:53.347Z,57.96
2022-08-14T17:45:28.144Z,58.07
2022-08-14T17:47:59.062Z,58.13
2022-08-14T17:50:55.121Z,58.31
2022-08-14T17:53:30.515Z,58.48
2022-08-14T17:56:00.935Z,58.72
2022-08-14T17:58:38.549Z,58.84
2022-08-14T18:01:12.682Z,58.82
2022-08-14T18:03:50.195Z,59.05
2022-08-14T18:06:38.709Z,59.14
2022-08-14T18:09:25.234Z,59.53
2022-08-14T18:11:55.501Z,59.69
2022-08-14T18:14:32.204Z,59.60
2022-08-14T18:17:11.725Z,59.90
2022-08-14T18:19:41.620Z,59.92
2022-08-14T18:22:23.872Z,60.05
2022-08-14T18:24:57.353Z,60.25
2022-08-14T18:27:36.382Z,60.55
2022-08-14T18:30:33.119Z,60.68
2022-08-14T18:32:55.343Z,60.84
2022-08-14T18:35:46.370Z,61.05
2022-08-14T18:38:25.963Z,61.20
2022-08-14T18:40:54.905Z,61.35
2022-08-14T18:43:43.082Z,61.47
2022-08-14T18:46:59.563Z,61.60
2022-08-14T18:49:13.244Z,61.83
2022-08-14T18:51:45.237Z,61.85
2022-08-14T18:54:27.015Z,61.93
2022-08-14T18:57:01.414Z,62.03
2022-08-14T18:59:35.723Z,62.08
2022-08-14T19:02:22.402Z,62.16
2022-08-14T19:05:02.794Z,62.23
2022-08-14T19:07:33.217Z,62.26
2022-08-14T19:10:03.464Z,62.39
2022-08-14T19:12:50.114Z,62.36
2022-08-14T19:15:19.897Z,62.55
2022-08-14T19:18:14.366Z,62.53
2022-08-14T19:20:52.880Z,62.67
2022-08-14T19:23:23.117Z,62.76
2022-08-14T19:26:36.255Z,62.82
2022-08-14T19:29:19.969Z,62.86
2022-08-14T19:31:55.237Z,62.88
2022-08-14T19:34:35.352Z,62.95
2022-08-14T19:37:05.942Z,63.12
2022-08-14T19:39:47.513Z,63.25
2022-08-14T19:42:46.739Z,63.21
2022-08-14T19:45:14.894Z,63.53
2022-08-14T19:47:42.794Z,63.56
2022-08-14T19:50:31.133Z,63.59
2022-08-14T19:53:11.416Z,63.86
2022-08-14T19:55:45.849Z,64.06
2022-08-14T19:58:13.703Z,64.21
2022-08-14T20:00:52.305Z,64.29
2022-08-14T20:03:24.234Z,64.26
2022-08-14T20:06:05.571Z,64.34
2022-08-14T20:11:01.102Z,64.51
2022-08-14T20:12:00.590Z,64.50
2022-08-14T20:14:29.487Z,64.69
2022-08-14T20:17:05.614Z,64.78
2022-08-14T20:19:37.861Z,64.89
2022-08-14T20:22:36.386Z,65.09
2022-08-14T20:25:10.400Z,65.28
2022-08-14T20:27:40.052Z,65.42
2022-08-14T20:30:29.776Z,65.67
2022-08-14T20:32:56.769Z,65.67
2022-08-14T20:35:36.300Z,65.81
2022-08-14T20:38:30.538Z,65.98
2022-08-14T20:40:53.601Z,66.06
2022-08-14T20:43:48.288Z,66.15
2022-08-14T20:46:29.456Z,66.20
2022-08-14T20:49:08.737Z,66.34
2022-08-14T20:51:47.440Z,66.27
2022-08-14T20:54:33.543Z,66.52
2022-08-14T20:57:09.293Z,66.59
2022-08-14T20:59:43.458Z,66.64
2022-08-14T21:02:38.850Z,66.69
2022-08-14T21:05:19.538Z,66.74
2022-08-14T21:07:51.287Z,66.90
2022-08-14T21:10:33.782Z,66.92
2022-08-14T21:13:11.902Z,67.03
2022-08-14T21:15:56.672Z,67.09
2022-08-14T21:18:28.853Z,67.22
2022-08-14T21:20:57.790Z,67.21
2022-08-14T21:23:27.301Z,67.37
2022-08-14T21:26:00.292Z,67.38
2022-08-14T21:28:30.172Z,67.45
2022-08-14T21:31:03.179Z,67.51
2022-08-14T21:33:30.899Z,67.51
2022-08-14T21:35:59.339Z,67.47
2022-08-14T21:38:38.097Z,67.66
2022-08-14T21:41:50.049Z,67.64
2022-08-14T21:44:17.717Z,67.74
2022-08-14T21:46:49.833Z,67.69
2022-08-14T21:49:38.318Z,67.90
2022-08-14T21:52:50.532Z,67.88
2022-08-14T21:54:59.481Z,68.04
2022-08-14T21:58:45.972Z,68.10
2022-08-14T22:00:36.061Z,68.32
2022-08-14T22:03:05.830Z,68.27
2022-08-14T22:05:33.655Z,68.16
2022-08-14T22:08:21.595Z,68.50
2022-08-14T22:10:54.681Z,68.49
2022-08-14T22:13:24.697Z,68.47
2022-08-14T22:15:58.200Z,68.38
2022-08-14T22:18:30.024Z,68.54
2022-08-14T22:20:57.896Z,68.48
2022-08-14T22:23:26.025Z,68.72
2022-08-14T22:25:55.257Z,68.67
2022-08-14T22:28:25.405Z,68.80
2022-08-14T22:30:54.798Z,68.78
2022-08-14T22:33:31.097Z,68.97
2022-08-14T22:36:00.467Z,68.96
2022-08-14T22:38:37.879Z,68.93
2022-08-14T22:41:27.682Z,69.17
2022-08-14T22:43:56.133Z,68.97
2022-08-14T22:46:23.698Z,69.00
2022-08-14T22:48:51.861Z,69.10
2022-08-14T22:51:21.465Z,69.11
2022-08-14T22:53:52.378Z,69.17
2022-08-14T22:56:22.066Z,69.34
2022-08-14T22:58:53.872Z,69.47
2022-08-14T23:01:23.650Z,69.49
2022-08-14T23:03:51.866Z,69.68
2022-08-14T23:07:02.965Z,69.77
2022-08-14T23:09:36.490Z,69.88
2022-08-14T23:11:56.672Z,69.97
2022-08-14T23:14:29.516Z,70.04
2022-08-14T23:16:58.520Z,70.10
2022-08-14T23:19:33.565Z,70.28
2022-08-14T23:22:03.628Z,70.38
2022-08-14T23:24:31.392Z,70.62
2022-08-14T23:27:00.591Z,70.68
2022-08-14T23:29:31.393Z,70.72
2022-08-14T23:31:59.445Z,70.76
2022-08-14T23:34:29.605Z,70.80
2022-08-14T23:36:57.876Z,70.89
2022-08-14T23:39:29.731Z,70.66
2022-08-14T23:42:02.290Z,71.10
2022-08-14T23:44:35.278Z,71.00
2022-08-14T23:47:11.857Z,70.86
2022-08-14T23:49:56.908Z,70.91
2022-08-14T23:53:06.038Z,70.84
2022-08-14T23:55:17.754Z,70.89
2022-08-14T23:57:57.623Z,71.05
